createdAt,value
2023-05-01T00:01:38.791Z,6.38
2023-05-01T00:04:08.433Z,9.60
2023-05-01T00:06:38.127Z,5.97
2023-05-01T00:09:08.113Z,5.78
2023-05-01T00:11:39.013Z,5.72
2023-05-01T00:14:08.505Z,6.30
2023-05-01T00:16:38.038Z,5.53
2023-05-01T00:19:08.278Z,5.65
2023-05-01T00:21:37.697Z,5.97
2023-05-01T00:24:07.644Z,7.55
2023-05-01T00:26:38.491Z,5.32
2023-05-01T00:29:08.014Z,6.55
2023-05-01T00:31:37.508Z,6.72
2023-05-01T00:34:07.236Z,6.05
2023-05-01T00:36:36.768Z,5.97
2023-05-01T00:39:07.560Z,5.40
2023-05-01T00:41:38.732Z,7.55
2023-05-01T00:44:08.266Z,5.50
2023-05-01T00:46:38.250Z,6.47
2023-05-01T00:49:07.895Z,6.45
2023-05-01T00:51:38.008Z,8.00
2023-05-01T00:54:07.683Z,7.13
2023-05-01T00:56:38.990Z,6.50
2023-05-01T00:59:08.631Z,7.50
2023-05-01T01:01:38.452Z,6.25
2023-05-01T01:04:08.152Z,5.95
2023-05-01T01:06:52.621Z,5.72
2023-05-01T01:09:41.740Z,5.20
2023-05-01T01:12:26.060Z,7.90
2023-05-01T01:15:11.728Z,9.68
2023-05-01T01:17:54.393Z,6.78
2023-05-01T01:20:39.241Z,7.88
2023-05-01T01:24:00.262Z,6.32
2023-05-01T01:26:53.289Z,6.65
2023-05-01T01:29:51.407Z,6.97
2023-05-01T01:33:18.970Z,6.75
2023-05-01T01:35:58.772Z,6.65
2023-05-01T01:38:37.703Z,7.57
2023-05-01T01:41:14.718Z,6.32
2023-05-01T01:43:50.945Z,7.28
2023-05-01T01:46:21.634Z,7.20
2023-05-01T01:48:53.964Z,7.63
2023-05-01T01:51:27.197Z,8.17
2023-05-01T01:54:01.727Z,7.63
2023-05-01T01:56:33.094Z,7.47
2023-05-01T01:59:04.227Z,8.27
2023-05-01T02:01:36.078Z,6.20
2023-05-01T02:04:06.746Z,9.07
2023-05-01T02:06:41.150Z,6.32
2023-05-01T02:09:13.538Z,7.13
2023-05-01T02:11:43.410Z,8.25
2023-05-01T02:14:13.783Z,8.38
2023-05-01T02:16:44.147Z,11.60
2023-05-01T02:19:15.917Z,6.80
2023-05-01T02:21:48.218Z,6.65
2023-05-01T02:24:19.247Z,6.77
2023-05-01T02:26:56.212Z,8.40
2023-05-01T02:29:26.859Z,7.35
2023-05-01T02:31:56.702Z,7.45
2023-05-01T02:34:26.913Z,8.13
2023-05-01T02:36:58.624Z,8.13
2023-05-01T02:39:28.445Z,6.47
2023-05-01T02:42:01.317Z,6.85
2023-05-01T02:44:40.118Z,8.23
2023-05-01T02:47:11.994Z,6.60
2023-05-01T02:49:42.141Z,7.43
2023-05-01T02:52:13.963Z,8.70
2023-05-01T02:54:45.291Z,7.60
2023-05-01T02:57:15.464Z,7.85
2023-05-01T02:59:44.999Z,8.00
2023-05-01T03:02:15.810Z,7.50
2023-05-01T03:04:45.494Z,8.15
2023-05-01T03:07:16.329Z,6.72
2023-05-01T03:09:45.833Z,8.45
2023-05-01T03:12:15.295Z,6.75
2023-05-01T03:14:44.763Z,7.68
2023-05-01T03:17:14.356Z,10.50
2023-05-01T03:19:43.959Z,8.10
2023-05-01T03:22:15.154Z,7.15
2023-05-01T03:24:45.039Z,8.27
2023-05-01T03:27:14.756Z,7.32
2023-05-01T03:29:44.544Z,8.48
2023-05-01T03:32:15.085Z,8.48
2023-05-01T03:34:45.368Z,8.05
2023-05-01T03:37:17.235Z,9.43
2023-05-01T03:39:47.029Z,9.73
2023-05-01T03:42:35.362Z,9.13
2023-05-01T03:45:12.926Z,8.45
2023-05-01T03:47:42.955Z,7.90
2023-05-01T03:50:14.568Z,7.65
2023-05-01T03:55:17.030Z,9.63
2023-05-01T03:57:49.387Z,9.50
2023-05-01T04:00:19.748Z,8.07
2023-05-01T04:02:50.617Z,8.73
2023-05-01T04:05:25.280Z,7.50
2023-05-01T04:08:02.091Z,11.43
2023-05-01T04:10:32.022Z,10.00
2023-05-01T04:13:06.981Z,8.50
2023-05-01T04:15:38.559Z,8.88
2023-05-01T04:18:08.194Z,8.35
2023-05-01T04:20:37.706Z,9.43
2023-05-01T04:23:09.484Z,9.38
2023-05-01T04:25:39.376Z,10.07
2023-05-01T04:28:14.502Z,8.27
2023-05-01T04:30:44.051Z,9.75
2023-05-01T04:33:13.734Z,8.90
2023-05-01T04:35:43.726Z,7.78
2023-05-01T04:38:14.695Z,9.07
2023-05-01T04:40:44.669Z,12.38
2023-05-01T04:43:14.336Z,9.95
2023-05-01T04:45:46.723Z,9.90
2023-05-01T04:48:16.243Z,8.95
2023-05-01T04:50:45.757Z,10.55
2023-05-01T04:53:16.721Z,9.43
2023-05-01T04:55:46.201Z,8.80
2023-05-01T04:58:17.946Z,9.10
2023-05-01T05:00:50.279Z,10.85
2023-05-01T05:03:23.995Z,8.77
2023-05-01T05:05:53.513Z,12.45
2023-05-01T05:08:24.692Z,12.57
2023-05-01T05:11:00.140Z,8.88
2023-05-01T05:13:36.632Z,8.27
2023-05-01T05:16:13.292Z,9.20
2023-05-01T05:18:42.953Z,9.30
2023-05-01T05:21:12.977Z,9.35
2023-05-01T05:23:49.716Z,10.05
2023-05-01T05:26:19.474Z,10.15
2023-05-01T05:28:51.211Z,8.88
2023-05-01T05:31:20.896Z,10.63
2023-05-01T05:33:50.412Z,10.10
2023-05-01T05:36:19.927Z,9.23
2023-05-01T05:38:50.822Z,11.77
2023-05-01T05:41:21.815Z,9.10
2023-05-01T05:43:54.315Z,10.05
2023-05-01T05:46:24.135Z,9.02
2023-05-01T05:48:53.848Z,8.48
2023-05-01T05:51:23.513Z,9.70
2023-05-01T05:53:54.350Z,9.93
2023-05-01T05:56:24.500Z,10.10
2023-05-01T05:58:54.504Z,8.98
2023-05-01T06:01:24.033Z,8.63
2023-05-01T06:03:53.542Z,9.43
2023-05-01T06:06:24.553Z,9.80
2023-05-01T06:08:55.431Z,9.85
2023-05-01T06:11:25.248Z,8.95
2023-05-01T06:13:54.746Z,11.32
2023-05-01T06:16:25.604Z,10.20
2023-05-01T06:18:55.470Z,12.73
2023-05-01T06:21:25.095Z,9.00
2023-05-01T06:23:56.223Z,8.40
2023-05-01T06:26:29.092Z,9.82
2023-05-01T06:28:58.668Z,8.85
2023-05-01T06:31:29.320Z,9.82
2023-05-01T06:33:59.964Z,10.75
2023-05-01T06:36:34.063Z,9.98
2023-05-01T06:39:06.095Z,10.27
2023-05-01T06:41:36.104Z,9.07
2023-05-01T06:44:06.566Z,10.18
2023-05-01T06:46:36.197Z,8.93
2023-05-01T06:49:06.601Z,10.98
2023-05-01T06:51:36.274Z,9.38
2023-05-01T06:54:07.314Z,9.50
2023-05-01T06:56:58.113Z,8.18
2023-05-01T06:59:27.570Z,9.50
2023-05-01T07:01:57.112Z,7.93
2023-05-01T07:04:26.638Z,9.40
2023-05-01T07:06:56.280Z,9.43
2023-05-01T07:09:27.143Z,8.25
2023-05-01T07:11:57.521Z,9.45
2023-05-01T07:14:27.043Z,9.30
2023-05-01T07:16:56.661Z,7.40
2023-05-01T07:19:26.257Z,9.43
2023-05-01T07:21:55.805Z,8.73
2023-05-01T07:24:26.715Z,7.75
2023-05-01T07:26:56.544Z,8.40
2023-05-01T07:29:26.225Z,8.65
2023-05-01T07:31:55.737Z,8.48
2023-05-01T07:34:25.376Z,8.98
2023-05-01T07:36:54.942Z,10.25
2023-05-01T07:39:26.253Z,10.00
2023-05-01T07:41:56.011Z,9.10
2023-05-01T07:44:25.476Z,8.90
2023-05-01T07:46:54.887Z,9.15
2023-05-01T07:49:24.501Z,11.30
2023-05-01T07:51:54.345Z,12.50
2023-05-01T07:54:24.664Z,8.27
2023-05-01T07:56:56.275Z,10.20
2023-05-01T07:59:25.822Z,9.57
2023-05-01T08:01:55.474Z,8.98
2023-05-01T08:04:25.240Z,8.70
2023-05-01T08:06:54.713Z,8.82
2023-05-01T08:09:24.419Z,10.15
2023-05-01T08:11:55.232Z,10.35
2023-05-01T08:14:24.851Z,10.48
2023-05-01T08:16:55.307Z,10.77
2023-05-01T08:19:27.062Z,10.43
2023-05-01T08:21:56.676Z,11.48
2023-05-01T08:24:26.270Z,9.85
2023-05-01T08:26:57.220Z,9.25
2023-05-01T08:29:26.744Z,9.77
2023-05-01T08:31:59.751Z,9.95
2023-05-01T08:34:29.401Z,11.25
2023-05-01T08:37:00.437Z,10.77
2023-05-01T08:39:30.026Z,16.77
2023-05-01T08:42:01.155Z,12.45
2023-05-01T08:44:32.596Z,12.20
2023-05-01T08:47:13.729Z,16.10
2023-05-01T08:49:44.924Z,11.95
2023-05-01T08:52:16.791Z,12.00
2023-05-01T08:54:49.645Z,13.93
2023-05-01T08:57:21.778Z,14.88
2023-05-01T08:59:53.569Z,13.10
2023-05-01T09:02:25.502Z,11.98
2023-05-01T09:04:55.497Z,14.60
2023-05-01T09:07:25.548Z,13.82
2023-05-01T09:09:55.410Z,14.23
2023-05-01T09:12:28.630Z,13.05
2023-05-01T09:14:58.792Z,14.38
2023-05-01T09:17:29.035Z,15.63
2023-05-01T09:19:58.921Z,17.77
2023-05-01T09:22:28.762Z,15.75
2023-05-01T09:24:59.045Z,14.63
2023-05-01T09:27:33.659Z,15.32
2023-05-01T09:30:03.437Z,14.48
2023-05-01T09:32:33.525Z,20.77
2023-05-01T09:35:13.489Z,14.82
2023-05-01T09:37:43.757Z,13.80
2023-05-01T09:40:16.012Z,15.98
2023-05-01T09:42:55.963Z,15.33
2023-05-01T09:45:27.926Z,19.63
2023-05-01T09:48:11.700Z,15.25
2023-05-01T09:50:42.385Z,17.65
2023-05-01T09:53:13.135Z,17.08
2023-05-01T09:55:42.630Z,15.30
2023-05-01T09:58:29.068Z,15.02
2023-05-01T10:00:58.982Z,13.93
2023-05-01T10:03:28.672Z,17.05
2023-05-01T10:06:00.859Z,16.30
2023-05-01T10:08:47.327Z,19.67
2023-05-01T10:11:17.320Z,16.13
2023-05-01T10:13:49.328Z,16.05
2023-05-01T10:16:31.856Z,17.67
2023-05-01T10:19:03.040Z,14.90
2023-05-01T10:21:35.135Z,16.73
2023-05-01T10:24:07.330Z,15.35
2023-05-01T10:26:37.861Z,15.60
2023-05-01T10:29:09.814Z,15.18
2023-05-01T10:31:40.828Z,15.38
2023-05-01T10:34:17.862Z,15.32
2023-05-01T10:36:55.449Z,18.75
2023-05-01T10:39:32.724Z,17.42
2023-05-01T10:42:10.904Z,17.23
2023-05-01T10:44:43.496Z,16.02
2023-05-01T10:47:48.545Z,15.80
2023-05-01T10:50:18.533Z,16.55
2023-05-01T10:53:21.419Z,17.58
2023-05-01T10:55:50.963Z,18.20
2023-05-01T10:58:59.356Z,16.80
2023-05-01T11:01:34.766Z,17.00
2023-05-01T11:04:08.243Z,15.93
2023-05-01T11:06:38.752Z,14.98
2023-05-01T11:09:41.197Z,16.98
2023-05-01T11:12:13.514Z,17.05
2023-05-01T11:15:09.571Z,11.93
2023-05-01T11:17:50.883Z,16.48
2023-05-01T11:20:51.777Z,15.27
2023-05-01T11:23:23.576Z,16.23
2023-05-01T11:26:06.012Z,16.05
2023-05-01T11:28:35.656Z,16.75
2023-05-01T11:31:05.509Z,17.20
2023-05-01T11:33:36.891Z,17.25
2023-05-01T11:36:07.144Z,14.70
2023-05-01T11:38:36.689Z,17.05
2023-05-01T11:41:06.126Z,16.58
2023-05-01T11:43:50.130Z,17.23
2023-05-01T11:46:27.732Z,17.52
2023-05-01T11:49:01.074Z,17.70
2023-05-01T11:51:32.064Z,18.17
2023-05-01T11:54:02.940Z,17.83
2023-05-01T11:56:35.549Z,17.50
2023-05-01T11:59:14.004Z,18.30
2023-05-01T12:01:45.827Z,18.85
2023-05-01T12:04:32.032Z,17.08
2023-05-01T12:07:02.139Z,15.73
2023-05-01T12:09:33.752Z,17.08
2023-05-01T12:12:03.806Z,17.50
2023-05-01T12:14:33.700Z,16.65
2023-05-01T12:17:04.086Z,16.67
2023-05-01T12:19:35.808Z,16.30
2023-05-01T12:22:08.767Z,18.20
2023-05-01T12:24:38.425Z,16.40
2023-05-01T12:27:09.206Z,17.83
2023-05-01T12:29:42.662Z,16.05
2023-05-01T12:32:12.253Z,16.83
2023-05-01T12:34:43.198Z,15.77
2023-05-01T12:37:12.746Z,15.93
2023-05-01T12:39:44.747Z,17.52
2023-05-01T12:42:15.321Z,15.35
2023-05-01T12:44:45.274Z,15.52
2023-05-01T12:47:14.854Z,16.00
2023-05-01T12:49:45.762Z,16.02
2023-05-01T12:52:15.411Z,14.60
2023-05-01T12:54:45.224Z,15.23
2023-05-01T12:57:16.826Z,15.10
2023-05-01T12:59:49.505Z,15.70
2023-05-01T13:02:19.603Z,15.80
2023-05-01T13:04:51.308Z,17.50
2023-05-01T13:07:21.046Z,18.02
2023-05-01T13:09:56.796Z,15.52
2023-05-01T13:12:27.785Z,15.75
2023-05-01T13:14:58.550Z,14.27
2023-05-01T13:17:33.251Z,14.35
2023-05-01T13:20:06.879Z,14.52
2023-05-01T13:22:39.095Z,14.40
2023-05-01T13:25:20.333Z,13.23
2023-05-01T13:27:51.534Z,13.02
2023-05-01T13:30:32.376Z,13.68
2023-05-01T13:33:02.786Z,13.00
2023-05-01T13:35:33.625Z,13.52
2023-05-01T13:38:04.933Z,13.15
2023-05-01T13:40:37.479Z,12.57
2023-05-01T13:43:17.133Z,14.43
2023-05-01T13:45:47.324Z,12.73
2023-05-01T13:48:19.748Z,13.15
2023-05-01T13:50:50.742Z,12.88
2023-05-01T13:53:20.211Z,13.40
2023-05-01T13:55:49.741Z,11.60
2023-05-01T13:58:19.270Z,12.23
2023-05-01T14:00:49.262Z,10.30
2023-05-01T14:03:19.653Z,13.23
2023-05-01T14:05:50.841Z,10.50
2023-05-01T14:08:23.639Z,10.38
2023-05-01T14:10:53.311Z,10.75
2023-05-01T14:13:22.828Z,9.13
2023-05-01T14:15:52.590Z,12.07
2023-05-01T14:18:22.718Z,9.98
2023-05-01T14:20:53.663Z,10.77
2023-05-01T14:23:24.741Z,10.48
2023-05-01T14:25:54.214Z,11.23
2023-05-01T14:28:23.785Z,10.13
2023-05-01T14:30:54.763Z,10.30
2023-05-01T14:33:26.169Z,10.05
2023-05-01T14:35:57.105Z,9.65
2023-05-01T14:38:27.649Z,9.50
2023-05-01T14:40:57.679Z,9.70
2023-05-01T14:43:29.175Z,8.70
2023-05-01T14:45:58.771Z,11.45
2023-05-01T14:48:37.082Z,9.05
2023-05-01T14:51:12.548Z,10.43
2023-05-01T14:53:43.716Z,9.15
2023-05-01T14:56:13.845Z,11.75
2023-05-01T14:58:43.290Z,10.70
2023-05-01T15:01:12.718Z,10.02
2023-05-01T15:03:43.803Z,10.20
2023-05-01T15:06:14.867Z,10.05
2023-05-01T15:08:44.697Z,9.00
2023-05-01T15:11:15.317Z,9.80
2023-05-01T15:13:45.222Z,7.50
2023-05-01T15:16:14.791Z,9.18
2023-05-01T15:18:44.448Z,8.88
2023-05-01T15:21:15.639Z,8.18
2023-05-01T15:23:46.155Z,7.43
2023-05-01T15:26:16.442Z,8.02
2023-05-01T15:28:45.976Z,10.30
2023-05-01T15:31:15.448Z,9.40
2023-05-01T15:33:45.008Z,7.45
2023-05-01T15:36:15.961Z,9.25
2023-05-01T15:38:46.375Z,8.75
2023-05-01T15:41:17.575Z,9.02
2023-05-01T15:43:48.302Z,7.88
2023-05-01T15:46:18.192Z,7.68
2023-05-01T15:48:47.784Z,9.60
2023-05-01T15:51:18.669Z,8.32
2023-05-01T15:53:48.264Z,8.32
2023-05-01T15:56:17.708Z,9.32
2023-05-01T15:58:47.272Z,10.43
2023-05-01T16:01:18.001Z,8.77
2023-05-01T16:03:49.872Z,9.73
2023-05-01T16:06:20.916Z,9.02
2023-05-01T16:08:50.621Z,9.93
2023-05-01T16:11:20.185Z,11.85
2023-05-01T16:13:50.480Z,10.40
2023-05-01T16:16:25.157Z,9.70
2023-05-01T16:18:57.450Z,10.88
2023-05-01T16:21:29.574Z,10.13
2023-05-01T16:23:59.262Z,12.05
2023-05-01T16:26:31.425Z,9.48
2023-05-01T16:29:03.880Z,10.30
2023-05-01T16:31:40.969Z,9.13
2023-05-01T16:34:13.289Z,10.15
2023-05-01T16:36:46.829Z,9.47
2023-05-01T16:39:19.863Z,8.77
2023-05-01T16:44:22.992Z,9.65
2023-05-01T16:46:54.946Z,9.13
2023-05-01T16:49:27.994Z,9.25
2023-05-01T16:51:58.873Z,9.95
2023-05-01T16:54:32.261Z,10.20
2023-05-01T16:57:03.210Z,9.35
2023-05-01T16:59:33.124Z,9.68
2023-05-01T17:02:02.728Z,11.32
2023-05-01T17:04:32.405Z,9.52
2023-05-01T17:07:03.331Z,9.38
2023-05-01T17:09:32.759Z,10.40
2023-05-01T17:12:03.806Z,9.00
2023-05-01T17:14:33.336Z,8.68
2023-05-01T17:17:04.540Z,7.75
2023-05-01T17:19:38.869Z,8.27
2023-05-01T17:22:09.888Z,9.02
2023-05-01T17:24:39.644Z,7.07
2023-05-01T17:27:09.354Z,6.50
2023-05-01T17:29:39.229Z,7.18
2023-05-01T17:32:08.832Z,7.97
2023-05-01T17:34:38.422Z,7.20
2023-05-01T17:37:10.626Z,7.35
2023-05-01T17:39:40.150Z,8.43
2023-05-01T17:42:09.617Z,7.88
2023-05-01T17:44:39.142Z,8.68
2023-05-01T17:47:08.685Z,9.73
2023-05-01T17:49:38.263Z,7.97
2023-05-01T17:52:09.191Z,12.32
2023-05-01T17:54:38.735Z,15.45
2023-05-01T17:57:08.221Z,14.10
2023-05-01T17:59:37.737Z,12.30
2023-05-01T18:02:08.376Z,9.75
2023-05-01T18:04:38.481Z,9.10
2023-05-01T18:07:09.410Z,9.57
2023-05-01T18:09:38.900Z,10.98
2023-05-01T18:12:08.564Z,10.13
2023-05-01T18:14:38.676Z,10.68
2023-05-01T18:17:08.320Z,9.50
2023-05-01T18:19:37.978Z,6.97
2023-05-01T18:22:09.013Z,7.88
2023-05-01T18:24:38.511Z,7.53
2023-05-01T18:27:07.991Z,6.50
2023-05-01T18:29:37.670Z,6.97
2023-05-01T18:32:09.331Z,8.93
2023-05-01T18:34:39.594Z,5.90
2023-05-01T18:37:10.469Z,5.72
2023-05-01T18:39:39.994Z,5.93
2023-05-01T18:42:10.129Z,5.97
2023-05-01T18:44:39.603Z,7.88
2023-05-01T18:47:09.070Z,4.93
2023-05-01T18:49:38.598Z,5.50
2023-05-01T18:52:09.637Z,5.15
2023-05-01T18:54:39.167Z,6.75
2023-05-01T18:57:08.684Z,5.53
2023-05-01T18:59:38.145Z,4.75
2023-05-01T19:02:07.789Z,4.90
2023-05-01T19:04:56.029Z,4.70
2023-05-01T19:07:28.121Z,4.55
2023-05-01T19:09:57.742Z,4.85
2023-05-01T19:12:27.425Z,3.58
2023-05-01T19:14:56.935Z,3.60
2023-05-01T19:17:27.797Z,3.65
2023-05-01T19:19:57.563Z,4.25
2023-05-01T19:22:28.582Z,5.22
2023-05-01T19:24:58.045Z,4.20
2023-05-01T19:27:27.802Z,4.47
2023-05-01T19:30:00.768Z,3.47
2023-05-01T19:35:00.120Z,4.60
2023-05-01T19:37:30.989Z,5.28
2023-05-01T19:40:00.623Z,4.97
2023-05-01T19:42:31.348Z,5.32
2023-05-01T19:45:00.915Z,4.03
2023-05-01T19:47:30.553Z,4.80
2023-05-01T19:50:00.184Z,5.72
2023-05-01T19:52:31.385Z,5.97
2023-05-01T19:55:05.943Z,5.22
2023-05-01T19:57:36.124Z,5.43
2023-05-01T20:00:07.974Z,4.10
2023-05-01T20:02:40.453Z,4.68
2023-05-01T20:05:11.387Z,4.20
2023-05-01T20:07:42.384Z,4.28
2023-05-01T20:10:12.203Z,4.45
2023-05-01T20:12:43.312Z,4.20
2023-05-01T20:15:13.079Z,4.50
2023-05-01T20:17:43.730Z,5.40
2023-05-01T20:20:13.394Z,4.82
2023-05-01T20:22:45.646Z,4.85
2023-05-01T20:25:16.001Z,7.27
2023-05-01T20:27:45.665Z,4.90
2023-05-01T20:30:15.127Z,5.18
2023-05-01T20:32:44.663Z,5.50
2023-05-01T20:35:14.675Z,4.20
2023-05-01T20:37:45.621Z,5.68
2023-05-01T20:40:16.442Z,7.25
2023-05-01T20:42:45.976Z,5.10
2023-05-01T20:45:15.528Z,4.45
2023-05-01T20:47:45.345Z,5.78
2023-05-01T20:50:14.859Z,4.93
2023-05-01T20:52:46.678Z,4.68
2023-05-01T20:55:16.181Z,5.93
2023-05-01T20:57:45.700Z,5.22
2023-05-01T21:00:15.712Z,6.75
2023-05-01T21:02:45.489Z,4.65
2023-05-01T21:05:16.231Z,4.85
2023-05-01T21:07:47.955Z,6.82
2023-05-01T21:10:17.409Z,4.93
2023-05-01T21:12:46.894Z,4.72
2023-05-01T21:15:16.581Z,4.47
2023-05-01T21:17:46.548Z,4.95
2023-05-01T21:20:18.605Z,5.63
2023-05-01T21:22:50.740Z,4.57
2023-05-01T21:25:27.025Z,5.65
2023-05-01T21:27:57.536Z,5.60
2023-05-01T21:30:33.323Z,5.25
2023-05-01T21:33:03.651Z,5.78
2023-05-01T21:35:33.368Z,5.03
2023-05-01T21:38:05.737Z,5.63
2023-05-01T21:40:39.243Z,5.67
2023-05-01T21:43:09.598Z,5.97
2023-05-01T21:45:44.501Z,5.18
2023-05-01T21:48:17.053Z,4.90
2023-05-01T21:50:51.267Z,7.78
2023-05-01T21:53:22.093Z,6.50
2023-05-01T21:55:51.565Z,5.50
2023-05-01T21:58:21.043Z,6.90
2023-05-01T22:00:51.549Z,5.78
2023-05-01T22:03:24.528Z,6.25
2023-05-01T22:08:26.021Z,6.97
2023-05-01T22:10:55.452Z,6.22
2023-05-01T22:13:24.981Z,5.47
2023-05-01T22:15:54.519Z,6.15
2023-05-01T22:18:24.001Z,5.05
2023-05-01T22:20:53.651Z,7.07
2023-05-01T22:23:24.865Z,4.85
2023-05-01T22:25:59.787Z,5.95
2023-05-01T22:28:29.882Z,5.05
2023-05-01T22:30:59.329Z,5.47
2023-05-01T22:33:28.821Z,5.25
2023-05-01T22:35:58.293Z,6.15
2023-05-01T22:38:29.204Z,4.80
2023-05-01T22:40:59.032Z,4.95
2023-05-01T22:43:28.632Z,5.75
2023-05-01T22:45:58.121Z,7.65
2023-05-01T22:48:27.670Z,4.70
2023-05-01T22:50:57.194Z,6.22
2023-05-01T22:53:28.750Z,4.28
2023-05-01T22:55:58.200Z,4.90
2023-05-01T22:58:27.628Z,6.60
2023-05-01T23:00:57.056Z,5.82
2023-05-01T23:03:26.592Z,4.45
2023-05-01T23:05:56.886Z,5.03
2023-05-01T23:08:28.243Z,4.30
2023-05-01T23:10:57.725Z,5.22
2023-05-01T23:13:28.160Z,6.40
2023-05-01T23:15:57.743Z,5.15
2023-05-01T23:18:34.174Z,5.63
2023-05-01T23:21:04.900Z,5.68
2023-05-01T23:23:37.368Z,5.90
2023-05-01T23:26:06.906Z,6.18
2023-05-01T23:28:41.969Z,6.40
2023-05-01T23:31:24.269Z,5.75
2023-05-01T23:33:54.728Z,7.60
2023-05-01T23:36:24.297Z,5.75
2023-05-01T23:38:55.216Z,5.50
2023-05-01T23:41:25.039Z,5.00
2023-05-01T23:43:54.502Z,5.95
2023-05-01T23:46:24.136Z,8.35
2023-05-01T23:48:53.719Z,6.22
2023-05-01T23:51:23.330Z,5.72
2023-05-01T23:53:54.202Z,6.90
2023-05-01T23:56:23.665Z,5.80
2023-05-01T23:58:53.112Z,6.22
